Time;durP1;ratioP1;P1;durP2;ratioP2;P2;SDS_P1;SDS_P2;PMS_P1;PMS_P2;Temp;Humidity;BMP_temperature;BMP_pressure;BME280_temperature;BME280_humidity;BME280_pressure;Samples;Min_cycle;Max_cycle;Signal;HPM_P1;HPM_P2
2023/08/07 00:00:09;;;;;;;3.08;1.48;;;;;;;;;;4955947;29;20456;-76
2023/08/07 00:02:35;;;;;;;4.63;1.80;;;;;;;;;;4953566;29;20040;-77
2023/08/07 00:05:00;;;;;;;5.05;1.98;;;;;;;;;;4954252;28;20114;-76
2023/08/07 00:07:26;;;;;;;5.60;1.55;;;;;;;;;;4938043;29;20027;-76
2023/08/07 00:09:51;;;;;;;3.80;1.55;;;;;;;;;;4955385;29;20028;-76
2023/08/07 00:12:17;;;;;;;3.30;1.77;;;;;;;;;;4955246;29;20039;-75
2023/08/07 00:14:42;;;;;;;2.45;1.42;;;;;;;;;;4955262;28;20035;-77
2023/08/07 00:17:08;;;;;;;2.72;1.45;;;;;;;;;;4955710;29;20035;-76
2023/08/07 00:19:34;;;;;;;2.95;1.35;;;;;;;;;;4939518;29;20103;-76
2023/08/07 00:21:59;;;;;;;3.67;2.47;;;;;;;;;;4919650;29;20038;-77
2023/08/07 00:24:25;;;;;;;2.17;1.33;;;;;;;;;;4937055;29;20027;-77
2023/08/07 00:26:50;;;;;;;3.38;1.30;;;;;;;;;;4919172;29;20032;-77
2023/08/07 00:29:16;;;;;;;3.75;1.67;;;;;;;;;;4920056;29;20074;-76
2023/08/07 00:31:41;;;;;;;2.97;1.40;;;;;;;;;;4921069;29;20035;-75
2023/08/07 00:34:07;;;;;;;3.13;1.55;;;;;;;;;;4923371;29;20031;-76
2023/08/07 00:36:34;;;;;;;2.63;1.20;;;;;;;;;;4934553;29;20028;-77
2023/08/07 00:39:00;;;;;;;2.20;1.27;;;;;;;;;;4952152;29;20059;-77
2023/08/07 00:41:26;;;;;;;3.10;1.40;;;;;;;;;;4972775;29;20027;-76
2023/08/07 00:43:51;;;;;;;2.30;1.20;;;;;;;;;;4924691;29;20055;-77
2023/08/07 00:46:17;;;;;;;2.88;1.50;;;;;;;;;;4972022;29;20039;-75
2023/08/07 00:48:43;;;;;;;2.25;1.30;;;;;;;;;;4970453;29;20031;-76
2023/08/07 00:51:08;;;;;;;2.92;1.30;;;;;;;;;;4933412;29;20173;-76
2023/08/07 00:53:37;;;;;;;2.17;1.20;;;;;;;;;;4941372;29;20037;-78
2023/08/07 00:56:03;;;;;;;2.90;1.23;;;;;;;;;;4939516;29;20027;-77
2023/08/07 00:58:29;;;;;;;5.05;1.25;;;;;;;;;;4938091;29;20094;-77
2023/08/07 01:00:56;;;;;;;2.30;1.10;;;;;;;;;;4938234;29;20115;-76
2023/08/07 01:03:23;;;;;;;3.17;1.30;;;;;;;;;;4922826;28;20111;-76
2023/08/07 01:05:48;;;;;;;3.65;1.50;;;;;;;;;;4955341;29;20038;-76
2023/08/07 01:08:14;;;;;;;1.90;1.10;;;;;;;;;;4955284;29;20391;-77
2023/08/07 01:11:03;;;;;;;2.72;1.40;;;;;;;;;;4921600;29;20038;-76
2023/08/07 01:13:32;;;;;;;2.60;1.30;;;;;;;;;;4923122;29;20520;-76
2023/08/07 01:16:01;;;;;;;2.20;1.30;;;;;;;;;;4941246;29;20035;-76
2023/08/07 01:18:26;;;;;;;4.70;1.55;;;;;;;;;;4926672;29;20124;-77
2023/08/07 01:20:52;;;;;;;4.35;1.60;;;;;;;;;;4959428;29;20035;-75
2023/08/07 01:23:17;;;;;;;3.85;1.80;;;;;;;;;;4939553;28;20039;-76
2023/08/07 01:25:43;;;;;;;3.63;1.60;;;;;;;;;;4921491;29;20487;-76
2023/08/07 01:28:22;;;;;;;4.93;1.80;;;;;;;;;;4905650;29;20031;-77
2023/08/07 01:30:49;;;;;;;3.47;1.98;;;;;;;;;;4935311;29;20078;-77
2023/08/07 01:33:22;;;;;;;3.28;1.40;;;;;;;;;;4936742;28;20059;-77
2023/08/07 01:35:50;;;;;;;3.95;1.73;;;;;;;;;;4921275;29;20283;-75
2023/08/07 01:38:16;;;;;;;3.60;1.80;;;;;;;;;;4936880;29;20027;-75
2023/08/07 01:40:42;;;;;;;3.42;2.00;;;;;;;;;;4954008;29;20035;-76
2023/08/07 01:43:07;;;;;;;4.25;1.73;;;;;;;;;;4936296;28;20031;-77
2023/08/07 01:45:34;;;;;;;4.68;1.80;;;;;;;;;;4925067;29;20482;-76
2023/08/07 01:47:59;;;;;;;4.07;1.90;;;;;;;;;;4902135;29;20038;-76
2023/08/07 01:50:25;;;;;;;4.53;2.13;;;;;;;;;;4934545;29;20028;-76
2023/08/07 01:52:52;;;;;;;3.22;2.10;;;;;;;;;;4934547;29;20027;-76
2023/08/07 01:55:18;;;;;;;3.15;1.90;;;;;;;;;;4917522;29;20487;-77
2023/08/07 01:57:49;;;;;;;4.75;2.88;;;;;;;;;;4902575;29;20486;-76
2023/08/07 02:00:15;;;;;;;4.22;1.70;;;;;;;;;;4949405;29;20090;-77
2023/08/07 02:02:41;;;;;;;4.28;1.85;;;;;;;;;;4933881;29;20529;-77
2023/08/07 02:05:06;;;;;;;3.97;2.00;;;;;;;;;;4936467;29;20102;-76
2023/08/07 02:07:32;;;;;;;5.97;2.45;;;;;;;;;;4920725;29;20054;-76
2023/08/07 02:09:59;;;;;;;3.35;2.00;;;;;;;;;;4936404;29;20039;-75
2023/08/07 02:12:26;;;;;;;3.13;1.98;;;;;;;;;;4920569;29;20042;-77
2023/08/07 02:14:51;;;;;;;7.53;2.10;;;;;;;;;;4936316;29;20486;-77
2023/08/07 02:17:17;;;;;;;3.92;1.80;;;;;;;;;;4919368;29;20042;-77
2023/08/07 02:19:43;;;;;;;3.30;1.90;;;;;;;;;;4936423;29;20538;-77
2023/08/07 02:22:08;;;;;;;4.60;1.88;;;;;;;;;;4920368;29;20039;-77
2023/08/07 02:24:34;;;;;;;3.55;1.77;;;;;;;;;;4920671;29;20116;-77
2023/08/07 02:26:59;;;;;;;4.65;2.05;;;;;;;;;;4920971;29;20090;-78
2023/08/07 02:29:25;;;;;;;3.30;1.85;;;;;;;;;;4924216;29;20031;-76
2023/08/07 02:31:50;;;;;;;3.33;1.90;;;;;;;;;;4939785;29;20027;-76
2023/08/07 02:34:16;;;;;;;2.72;1.70;;;;;;;;;;4955331;28;20050;-77
2023/08/07 02:36:41;;;;;;;5.88;2.08;;;;;;;;;;4957185;29;20058;-76
2023/08/07 02:39:07;;;;;;;3.85;2.10;;;;;;;;;;4939790;29;20035;-76
2023/08/07 02:41:32;;;;;;;3.55;1.90;;;;;;;;;;4939675;29;20119;-76
2023/08/07 02:44:00;;;;;;;4.10;2.10;;;;;;;;;;4946642;23;20051;-76
2023/08/07 02:46:25;;;;;;;4.13;2.00;;;;;;;;;;4905155;29;20491;-76
2023/08/07 02:48:51;;;;;;;5.97;2.30;;;;;;;;;;4946967;29;20032;-76
2023/08/07 02:51:16;;;;;;;3.70;2.20;;;;;;;;;;4939510;29;20495;-75
2023/08/07 02:53:42;;;;;;;4.53;2.17;;;;;;;;;;4926354;28;20037;-75
2023/08/07 02:56:07;;;;;;;6.38;2.47;;;;;;;;;;4975769;28;20605;-77
2023/08/07 02:58:33;;;;;;;4.55;2.20;;;;;;;;;;4975982;28;20030;-75
2023/08/07 03:01:06;;;;;;;6.28;2.40;;;;;;;;;;4975777;28;20509;-77
2023/08/07 03:03:31;;;;;;;3.75;2.17;;;;;;;;;;4957398;28;20027;-76
2023/08/07 03:05:57;;;;;;;4.70;2.10;;;;;;;;;;4976428;28;20127;-76
2023/08/07 03:08:23;;;;;;;4.05;1.90;;;;;;;;;;4960325;28;20027;-76
2023/08/07 03:10:52;;;;;;;4.72;2.30;;;;;;;;;;4963973;28;20526;-76
2023/08/07 03:13:18;;;;;;;6.78;1.90;;;;;;;;;;4969005;28;20035;-75
2023/08/07 03:15:43;;;;;;;4.45;2.10;;;;;;;;;;4955031;28;20117;-74
2023/08/07 03:18:09;;;;;;;8.48;1.80;;;;;;;;;;4991193;28;20119;-75
2023/08/07 03:20:36;;;;;;;6.20;2.05;;;;;;;;;;4935869;29;20107;-75
2023/08/07 03:23:01;;;;;;;7.95;2.65;;;;;;;;;;4949219;29;20031;-76
2023/08/07 03:25:27;;;;;;;3.42;1.90;;;;;;;;;;4911133;29;20083;-75
2023/08/07 03:27:53;;;;;;;3.17;1.60;;;;;;;;;;4927065;29;20040;-76
2023/08/07 03:30:18;;;;;;;3.70;1.67;;;;;;;;;;4905933;29;20062;-76
2023/08/07 03:32:44;;;;;;;3.70;1.73;;;;;;;;;;4920449;29;20067;-76
2023/08/07 03:35:12;;;;;;;6.70;1.88;;;;;;;;;;4930591;28;20054;-76
2023/08/07 03:37:37;;;;;;;9.95;1.73;;;;;;;;;;4957975;28;20066;-77
2023/08/07 03:40:03;;;;;;;3.58;1.73;;;;;;;;;;4975569;28;20034;-75
2023/08/07 03:42:29;;;;;;;4.60;2.03;;;;;;;;;;4958201;28;20038;-74
2023/08/07 03:44:54;;;;;;;5.03;2.15;;;;;;;;;;4942348;28;20035;-76
2023/08/07 03:47:22;;;;;;;3.92;1.90;;;;;;;;;;4958913;28;20043;-76
2023/08/07 03:49:47;;;;;;;3.88;2.22;;;;;;;;;;4942435;28;20042;-76
2023/08/07 03:52:13;;;;;;;3.55;1.77;;;;;;;;;;4939826;29;20031;-75
2023/08/07 03:54:38;;;;;;;4.97;2.00;;;;;;;;;;4919933;29;20045;-75
2023/08/07 03:57:04;;;;;;;4.57;2.30;;;;;;;;;;4936928;29;20102;-76
2023/08/07 03:59:29;;;;;;;5.97;2.65;;;;;;;;;;4903987;29;20028;-75
2023/08/07 04:01:55;;;;;;;4.68;2.55;;;;;;;;;;4919238;29;20526;-77
2023/08/07 04:04:20;;;;;;;7.82;2.65;;;;;;;;;;4936169;29;20019;-76
2023/08/07 04:06:46;;;;;;;4.40;2.50;;;;;;;;;;4926737;28;20085;-74
2023/08/07 04:09:12;;;;;;;3.80;2.33;;;;;;;;;;4974767;28;20061;-77
2023/08/07 04:11:38;;;;;;;3.80;2.28;;;;;;;;;;4957341;28;20066;-77
2023/08/07 04:14:03;;;;;;;3.55;1.60;;;;;;;;;;4956940;28;20050;-76
2023/08/07 04:16:31;;;;;;;5.97;2.20;;;;;;;;;;4957231;28;20525;-77
2023/08/07 04:18:56;;;;;;;9.77;2.50;;;;;;;;;;4925596;28;20077;-77
2023/08/07 04:21:22;;;;;;;6.32;1.83;;;;;;;;;;4974231;28;20070;-77
2023/08/07 04:23:48;;;;;;;4.57;2.05;;;;;;;;;;4972436;28;20033;-76
2023/08/07 04:26:14;;;;;;;5.20;2.50;;;;;;;;;;4974348;28;20574;-77
2023/08/07 04:28:39;;;;;;;6.13;1.67;;;;;;;;;;4956963;28;20098;-77
2023/08/07 04:31:05;;;;;;;4.53;1.92;;;;;;;;;;4956968;28;20026;-76
2023/08/07 04:33:31;;;;;;;5.40;1.75;;;;;;;;;;4973870;28;20107;-76
2023/08/07 04:35:56;;;;;;;3.10;1.73;;;;;;;;;;4973969;28;20434;-76
2023/08/07 04:38:21;;;;;;;4.68;1.52;;;;;;;;;;4974055;28;20054;-76
2023/08/07 04:40:48;;;;;;;2.95;1.58;;;;;;;;;;4939415;28;20035;-76
2023/08/07 04:43:13;;;;;;;2.55;1.67;;;;;;;;;;4956424;28;20041;-76
2023/08/07 04:45:39;;;;;;;6.50;2.10;;;;;;;;;;4973881;28;20030;-75
2023/08/07 04:48:06;;;;;;;5.35;1.60;;;;;;;;;;4974123;28;20105;-76
2023/08/07 04:50:31;;;;;;;2.55;1.30;;;;;;;;;;4955987;28;20062;-76
2023/08/07 04:52:57;;;;;;;3.13;1.20;;;;;;;;;;4973528;28;20027;-77
2023/08/07 04:55:22;;;;;;;3.55;1.20;;;;;;;;;;4973821;28;20026;-77
2023/08/07 04:57:49;;;;;;;2.83;1.20;;;;;;;;;;4965557;28;20034;-77
2023/08/07 05:00:18;;;;;;;2.63;1.30;;;;;;;;;;4954511;29;20042;-77
2023/08/07 05:02:43;;;;;;;1.73;0.90;;;;;;;;;;4954301;29;20031;-76
2023/08/07 05:05:09;;;;;;;2.90;1.25;;;;;;;;;;4937008;29;20066;-76
2023/08/07 05:07:35;;;;;;;5.85;1.20;;;;;;;;;;4921472;29;20023;-77
2023/08/07 05:10:03;;;;;;;1.58;0.93;;;;;;;;;;4954213;29;20443;-76
2023/08/07 05:12:29;;;;;;;;;;;;;;;;;;4921634;29;20031;-77
2023/08/07 05:14:54;;;;;;;2.60;1.13;;;;;;;;;;4917174;29;19910;-76
2023/08/07 05:17:20;;;;;;;2.95;1.42;;;;;;;;;;4935008;29;20038;-77
2023/08/07 05:19:45;;;;;;;3.45;1.30;;;;;;;;;;4917851;29;20036;-76
2023/08/07 05:22:11;;;;;;;3.17;1.30;;;;;;;;;;4934939;29;20407;-76
2023/08/07 05:24:39;;;;;;;6.47;1.40;;;;;;;;;;4902094;29;20024;-76
2023/08/07 05:27:07;;;;;;;4.20;1.23;;;;;;;;;;4917678;29;20032;-77
2023/08/07 05:29:33;;;;;;;1.85;1.00;;;;;;;;;;4934952;29;20060;-76
2023/08/07 05:31:59;;;;;;;2.22;1.00;;;;;;;;;;4944317;29;20027;-76
2023/08/07 05:34:24;;;;;;;2.30;1.13;;;;;;;;;;4953701;29;20027;-74
2023/08/07 05:36:50;;;;;;;2.80;1.35;;;;;;;;;;4954076;29;20082;-76
2023/08/07 05:39:15;;;;;;;4.75;1.05;;;;;;;;;;4954313;29;20031;-77
2023/08/07 05:41:41;;;;;;;2.80;1.10;;;;;;;;;;4937372;29;20043;-77
2023/08/07 05:44:06;;;;;;;7.50;1.45;;;;;;;;;;4937415;29;20110;-76
2023/08/07 05:46:32;;;;;;;5.45;1.30;;;;;;;;;;4923098;29;20039;-76
2023/08/07 05:48:57;;;;;;;3.90;1.23;;;;;;;;;;4963189;28;20028;-75
2023/08/07 05:51:23;;;;;;;3.08;1.40;;;;;;;;;;4954125;28;20035;-76
2023/08/07 05:53:48;;;;;;;5.93;1.67;;;;;;;;;;4970505;28;20059;-74
2023/08/07 05:56:14;;;;;;;3.83;1.50;;;;;;;;;;4955537;28;20039;-74
2023/08/07 05:58:40;;;;;;;4.32;1.35;;;;;;;;;;4968223;28;20031;-75
2023/08/07 06:01:05;;;;;;;3.97;1.35;;;;;;;;;;4967177;28;20098;-76
2023/08/07 06:03:32;;;;;;;5.03;1.42;;;;;;;;;;4965764;28;20031;-76
2023/08/07 06:05:58;;;;;;;4.00;1.40;;;;;;;;;;4972952;28;20086;-76
2023/08/07 06:08:23;;;;;;;6.00;1.88;;;;;;;;;;4958245;29;20110;-76
2023/08/07 06:10:49;;;;;;;4.35;1.50;;;;;;;;;;4941500;29;20486;-76
2023/08/07 06:13:14;;;;;;;5.60;1.48;;;;;;;;;;4941565;29;20031;-76
2023/08/07 06:15:40;;;;;;;2.58;1.30;;;;;;;;;;4939984;29;20024;-75
2023/08/07 06:18:05;;;;;;;8.55;1.40;;;;;;;;;;4941305;29;20046;-76
2023/08/07 06:20:31;;;;;;;4.65;1.60;;;;;;;;;;4940909;29;20042;-77
2023/08/07 06:22:56;;;;;;;5.93;1.45;;;;;;;;;;4940426;29;20122;-76
2023/08/07 06:25:22;;;;;;;3.22;1.23;;;;;;;;;;4957517;29;20031;-76
2023/08/07 06:27:47;;;;;;;7.53;2.05;;;;;;;;;;4957929;29;20028;-77
2023/08/07 06:30:22;;;;;;;3.85;1.23;;;;;;;;;;4939927;28;20031;-77
2023/08/07 06:32:48;;;;;;;2.80;1.50;;;;;;;;;;4976370;28;20035;-77
2023/08/07 06:35:13;;;;;;;4.80;1.40;;;;;;;;;;4943123;28;20037;-76
2023/08/07 06:37:39;;;;;;;3.70;1.35;;;;;;;;;;4976180;28;20106;-76
2023/08/07 06:43:06;;;;;;;2.22;1.20;;;;;;;;;;4958462;28;20446;-75
2023/08/07 06:45:32;;;;;;;2.90;1.30;;;;;;;;;;4942850;28;20059;-77
2023/08/07 06:47:57;;;;;;;2.88;1.35;;;;;;;;;;4941790;28;20379;-76
2023/08/07 06:50:24;;;;;;;4.90;1.20;;;;;;;;;;4939860;29;20031;-75
2023/08/07 06:52:50;;;;;;;3.88;1.60;;;;;;;;;;4939746;29;20039;-77
2023/08/07 06:55:15;;;;;;;2.50;1.25;;;;;;;;;;4939740;29;20027;-76
2023/08/07 06:57:42;;;;;;;5.43;1.50;;;;;;;;;;4939542;29;20050;-76
2023/08/07 07:00:09;;;;;;;2.30;1.30;;;;;;;;;;4939736;29;20102;-76
2023/08/07 07:02:35;;;;;;;3.07;1.20;;;;;;;;;;4939554;29;20035;-76
2023/08/07 07:05:00;;;;;;;3.72;1.30;;;;;;;;;;4931842;28;20509;-77
2023/08/07 07:07:26;;;;;;;3.88;1.20;;;;;;;;;;4975949;28;20027;-74
2023/08/07 07:09:52;;;;;;;3.53;1.10;;;;;;;;;;4975936;28;20030;-75
2023/08/07 07:12:17;;;;;;;2.47;0.80;;;;;;;;;;4942512;28;20039;-76
2023/08/07 07:14:43;;;;;;;3.28;1.42;;;;;;;;;;4975072;28;20033;-75
2023/08/07 07:17:12;;;;;;;2.60;0.90;;;;;;;;;;4975627;28;20039;-75
2023/08/07 07:19:37;;;;;;;2.15;0.77;;;;;;;;;;4958504;28;20037;-76
2023/08/07 07:22:03;;;;;;;1.48;0.70;;;;;;;;;;4956534;28;20053;-76
2023/08/07 07:24:28;;;;;;;3.20;0.98;;;;;;;;;;4975212;28;20019;-77
2023/08/07 07:26:54;;;;;;;2.28;0.80;;;;;;;;;;4958144;28;20035;-75
2023/08/07 07:29:20;;;;;;;1.63;0.80;;;;;;;;;;4958158;28;20094;-75
2023/08/07 07:31:46;;;;;;;2.03;1.00;;;;;;;;;;4975424;28;20038;-77
2023/08/07 07:34:12;;;;;;;4.10;1.08;;;;;;;;;;4957832;28;20117;-77
2023/08/07 07:36:37;;;;;;;1.60;0.60;;;;;;;;;;4975236;28;20030;-76
2023/08/07 07:39:03;;;;;;;2.00;0.85;;;;;;;;;;4956435;28;20034;-76
2023/08/07 07:41:29;;;;;;;2.85;1.00;;;;;;;;;;4957748;28;20093;-77
2023/08/07 07:43:56;;;;;;;2.00;1.13;;;;;;;;;;4957503;28;20031;-75
2023/08/07 07:46:22;;;;;;;1.95;0.75;;;;;;;;;;4975193;28;20054;-76
2023/08/07 07:48:47;;;;;;;2.40;0.95;;;;;;;;;;4975251;28;20482;-77
2023/08/07 07:51:13;;;;;;;1.52;0.77;;;;;;;;;;4957794;28;20027;-78
2023/08/07 07:53:38;;;;;;;1.63;0.90;;;;;;;;;;4957876;28;20034;-77
2023/08/07 07:56:04;;;;;;;7.20;1.20;;;;;;;;;;4932108;29;20035;-75
2023/08/07 07:58:29;;;;;;;3.05;1.10;;;;;;;;;;4936508;29;20031;-77
2023/08/07 08:00:55;;;;;;;14.27;1.70;;;;;;;;;;4936755;29;20050;-76
2023/08/07 08:03:23;;;;;;;4.20;1.10;;;;;;;;;;4919020;29;20063;-77
2023/08/07 08:05:52;;;;;;;4.60;1.20;;;;;;;;;;4919494;29;20023;-77
2023/08/07 08:08:18;;;;;;;4.15;0.80;;;;;;;;;;4936579;29;20031;-77
2023/08/07 08:10:44;;;;;;;4.28;0.95;;;;;;;;;;4936850;29;20032;-77
2023/08/07 08:13:09;;;;;;;4.47;0.85;;;;;;;;;;4966797;28;20079;-76
2023/08/07 08:15:35;;;;;;;2.00;0.88;;;;;;;;;;4978015;28;20494;-83
2023/08/07 08:18:00;;;;;;;59.80;45.42;;;;;;;;;;4981984;28;20033;-85
2023/08/07 08:20:26;;;;;;;2.10;1.10;;;;;;;;;;4983901;28;20038;-80
2023/08/07 08:22:52;;;;;;;6.18;1.73;;;;;;;;;;4984410;28;20090;-82
2023/08/07 08:25:17;;;;;;;2.33;1.13;;;;;;;;;;4985737;28;20046;-82
2023/08/07 08:27:43;;;;;;;2.90;1.95;;;;;;;;;;4975855;28;20031;-82
2023/08/07 08:30:09;;;;;;;60.13;4.88;;;;;;;;;;4945949;28;20038;-82
2023/08/07 08:32:34;;;;;;;7.38;2.15;;;;;;;;;;4998125;28;20054;-81
2023/08/07 08:35:00;;;;;;;6.50;1.67;;;;;;;;;;4982047;28;20090;-81
2023/08/07 08:37:26;;;;;;;5.80;1.27;;;;;;;;;;4981639;28;20122;-81
2023/08/07 08:39:52;;;;;;;6.78;1.55;;;;;;;;;;4977718;28;20049;-82
2023/08/07 08:42:17;;;;;;;4.05;0.82;;;;;;;;;;4958330;28;20457;-83
2023/08/07 08:44:53;;;;;;;2.30;0.80;;;;;;;;;;4957387;23;20569;-79
2023/08/07 08:47:20;;;;;;;2.05;0.90;;;;;;;;;;4940714;28;20046;-79
2023/08/07 08:49:47;;;;;;;3.03;1.00;;;;;;;;;;4940643;28;20026;-78
2023/08/07 08:52:13;;;;;;;4.75;1.17;;;;;;;;;;4940119;28;20571;-80
2023/08/07 08:54:40;;;;;;;3.13;1.10;;;;;;;;;;4949392;29;20196;-79
2023/08/07 08:57:06;;;;;;;4.68;0.90;;;;;;;;;;4953079;28;20035;-79
2023/08/07 08:59:32;;;;;;;5.38;1.13;;;;;;;;;;4937283;29;20035;-79
2023/08/07 09:01:58;;;;;;;7.32;1.10;;;;;;;;;;4921326;29;20101;-79
2023/08/07 09:04:23;;;;;;;3.95;1.08;;;;;;;;;;4935332;29;20474;-79
2023/08/07 09:06:49;;;;;;;2.40;0.90;;;;;;;;;;4936881;29;20494;-79
2023/08/07 09:09:16;;;;;;;4.50;1.13;;;;;;;;;;4954082;29;20034;-79
2023/08/07 09:11:43;;;;;;;3.08;0.95;;;;;;;;;;4920871;29;20031;-79
2023/08/07 09:14:10;;;;;;;4.07;1.00;;;;;;;;;;4952680;29;20118;-78
2023/08/07 09:16:36;;;;;;;3.05;1.20;;;;;;;;;;4937180;29;20035;-79
2023/08/07 09:19:02;;;;;;;3.47;0.98;;;;;;;;;;4921257;29;20071;-81
2023/08/07 09:21:28;;;;;;;2.00;0.90;;;;;;;;;;4920884;29;20081;-79
2023/08/07 09:23:54;;;;;;;3.00;0.85;;;;;;;;;;4917653;29;20101;-80
2023/08/07 09:26:25;;;;;;;2.22;0.80;;;;;;;;;;4934891;29;20457;-80
2023/08/07 09:28:52;;;;;;;2.53;0.90;;;;;;;;;;4918021;29;20024;-81
2023/08/07 09:31:18;;;;;;;3.53;0.95;;;;;;;;;;4902228;29;20656;-80
2023/08/07 09:33:46;;;;;;;2.92;0.90;;;;;;;;;;4934682;29;20035;-80
2023/08/07 09:36:11;;;;;;;1.30;0.70;;;;;;;;;;4901752;29;20483;-80
2023/08/07 09:38:37;;;;;;;4.07;0.70;;;;;;;;;;4925964;29;20082;-79
2023/08/07 09:41:03;;;;;;;1.58;0.88;;;;;;;;;;4934696;29;20094;-80
2023/08/07 09:43:29;;;;;;;3.10;0.90;;;;;;;;;;4917396;29;20036;-79
2023/08/07 09:46:05;;;;;;;4.13;1.00;;;;;;;;;;4901705;29;20119;-80
2023/08/07 09:48:33;;;;;;;1.85;0.98;;;;;;;;;;4933519;29;20090;-80
2023/08/07 09:51:05;;;;;;;4.20;1.08;;;;;;;;;;4934587;29;20024;-79
2023/08/07 09:53:31;;;;;;;4.28;1.00;;;;;;;;;;4934380;29;20031;-80
2023/08/07 09:55:58;;;;;;;4.03;0.80;;;;;;;;;;4916032;29;20530;-78
2023/08/07 09:58:24;;;;;;;3.60;0.95;;;;;;;;;;4953521;29;20505;-78
2023/08/07 10:00:50;;;;;;;2.95;0.80;;;;;;;;;;4953539;29;20038;-79
2023/08/07 10:03:17;;;;;;;2.58;0.63;;;;;;;;;;4935961;29;20027;-80
2023/08/07 10:05:43;;;;;;;1.67;0.60;;;;;;;;;;4920399;29;20024;-80
2023/08/07 10:08:09;;;;;;;3.33;0.63;;;;;;;;;;4936317;29;20039;-81
2023/08/07 10:10:36;;;;;;;1.10;0.60;;;;;;;;;;4918977;29;20047;-79
2023/08/07 10:13:02;;;;;;;1.60;0.80;;;;;;;;;;4936148;29;20050;-80
2023/08/07 10:15:32;;;;;;;3.00;0.50;;;;;;;;;;4935967;29;20039;-80
2023/08/07 10:17:58;;;;;;;4.18;0.80;;;;;;;;;;4936190;29;20167;-79
2023/08/07 10:20:28;;;;;;;1.60;0.60;;;;;;;;;;4920481;29;20122;-79
2023/08/07 10:22:56;;;;;;;1.00;0.60;;;;;;;;;;4920491;29;20027;-81
2023/08/07 10:25:23;;;;;;;3.20;0.75;;;;;;;;;;4904550;29;20027;-79
2023/08/07 10:27:51;;;;;;;1.50;0.60;;;;;;;;;;4897888;29;20506;-78
2023/08/07 10:30:18;;;;;;;641.95;412.30;;;;;;;;;;4915312;29;20099;-77
2023/08/07 10:32:44;;;;;;;12.40;7.20;;;;;;;;;;4899248;29;20071;-83
2023/08/07 10:35:09;;;;;;;9.32;4.15;;;;;;;;;;4930498;29;20487;-85
2023/08/07 10:37:42;;;;;;;2.58;0.98;;;;;;;;;;4885769;29;20519;-83
2023/08/07 10:40:09;;;;;;;1.63;0.63;;;;;;;;;;4937062;29;20100;-81
2023/08/07 10:42:54;;;;;;;1.50;0.55;;;;;;;;;;4907709;29;20107;-77
2023/08/07 10:45:23;;;;;;;0.73;0.52;;;;;;;;;;4925732;29;20044;-76
2023/08/07 10:48:01;;;;;;;3.15;0.68;;;;;;;;;;4922435;29;20027;-77
2023/08/07 10:50:27;;;;;;;3.37;0.57;;;;;;;;;;4942091;29;20034;-77
2023/08/07 10:52:53;;;;;;;1.27;0.90;;;;;;;;;;4908076;29;20451;-79
2023/08/07 10:55:19;;;;;;;1.92;0.70;;;;;;;;;;4939966;29;20031;-78
2023/08/07 10:57:46;;;;;;;2.63;0.60;;;;;;;;;;4922460;29;20039;-78
2023/08/07 11:00:12;;;;;;;1.13;0.70;;;;;;;;;;4916406;29;20042;-78
2023/08/07 11:02:44;;;;;;;3.40;0.80;;;;;;;;;;4958004;29;20049;-78
2023/08/07 11:05:10;;;;;;;5.68;0.90;;;;;;;;;;4924757;29;20483;-79
2023/08/07 11:07:40;;;;;;;4.25;1.10;;;;;;;;;;4939739;29;20603;-80
2023/08/07 11:10:06;;;;;;;1.70;0.80;;;;;;;;;;4939304;29;20031;-78
2023/08/07 11:12:31;;;;;;;2.10;0.82;;;;;;;;;;4957008;29;20038;-78
2023/08/07 11:14:57;;;;;;;3.00;0.70;;;;;;;;;;4955306;29;20107;-78
2023/08/07 11:17:26;;;;;;;1.48;0.88;;;;;;;;;;4923691;29;20372;-79
2023/08/07 11:19:53;;;;;;;2.35;0.63;;;;;;;;;;4939262;29;20069;-78
2023/08/07 11:22:18;;;;;;;1.27;0.70;;;;;;;;;;4923363;29;20043;-79
2023/08/07 11:24:45;;;;;;;1.02;0.70;;;;;;;;;;4941056;29;20035;-79
2023/08/07 11:27:10;;;;;;;1.02;0.55;;;;;;;;;;4941323;29;20099;-78
2023/08/07 11:29:36;;;;;;;1.65;0.80;;;;;;;;;;4957092;29;20542;-78
2023/08/07 11:32:02;;;;;;;3.35;0.85;;;;;;;;;;4939639;29;20529;-81
2023/08/07 11:34:27;;;;;;;4.20;0.80;;;;;;;;;;4955465;29;20407;-78
2023/08/07 11:36:55;;;;;;;4.05;1.17;;;;;;;;;;4939266;29;20407;-78
2023/08/07 11:39:21;;;;;;;1.83;0.73;;;;;;;;;;4938719;29;20032;-77
2023/08/07 11:42:06;;;;;;;1.02;0.60;;;;;;;;;;4941120;29;20062;-79
2023/08/07 11:44:33;;;;;;;1.67;0.70;;;;;;;;;;4926145;29;20028;-77
2023/08/07 11:46:59;;;;;;;2.50;0.70;;;;;;;;;;4956334;29;20039;-78
2023/08/07 11:49:25;;;;;;;3.30;0.80;;;;;;;;;;4936903;29;20087;-78
2023/08/07 11:51:50;;;;;;;1.40;0.70;;;;;;;;;;4955497;29;20466;-78
2023/08/07 11:54:17;;;;;;;2.13;0.63;;;;;;;;;;4955634;29;20426;-78
2023/08/07 11:56:42;;;;;;;3.17;0.90;;;;;;;;;;4955463;29;20225;-78
2023/08/07 11:59:08;;;;;;;1.98;0.80;;;;;;;;;;4922369;29;20406;-78
2023/08/07 12:01:37;;;;;;;3.97;0.90;;;;;;;;;;4955215;29;20042;-77
2023/08/07 12:04:06;;;;;;;4.88;1.02;;;;;;;;;;4954984;29;20171;-77
2023/08/07 12:06:32;;;;;;;1.42;0.73;;;;;;;;;;4953662;29;20033;-78
2023/08/07 12:08:59;;;;;;;2.30;0.68;;;;;;;;;;4922111;29;20469;-77
2023/08/07 12:11:24;;;;;;;2.28;0.70;;;;;;;;;;4955300;29;20027;-76
2023/08/07 12:13:50;;;;;;;3.45;0.70;;;;;;;;;;4937542;29;20347;-77
2023/08/07 12:16:17;;;;;;;7.97;0.90;;;;;;;;;;4937794;29;20454;-77
2023/08/07 12:18:46;;;;;;;1.48;0.63;;;;;;;;;;4937765;29;20039;-76
2023/08/07 12:21:13;;;;;;;3.00;0.70;;;;;;;;;;4954825;29;20027;-77
2023/08/07 12:23:40;;;;;;;1.40;0.52;;;;;;;;;;4953202;29;20040;-79
2023/08/07 12:26:06;;;;;;;1.05;0.45;;;;;;;;;;4937758;29;20041;-76
2023/08/07 12:28:35;;;;;;;5.93;1.13;;;;;;;;;;4937634;29;20475;-79
2023/08/07 12:31:01;;;;;;;2.80;0.80;;;;;;;;;;4954669;29;20031;-78
2023/08/07 12:33:28;;;;;;;1.50;0.50;;;;;;;;;;4937604;29;20027;-78
2023/08/07 12:35:54;;;;;;;1.70;0.60;;;;;;;;;;4953337;29;20031;-77
2023/08/07 12:38:19;;;;;;;3.70;0.75;;;;;;;;;;4954369;29;20444;-78
2023/08/07 12:40:45;;;;;;;1.40;0.70;;;;;;;;;;4935901;29;20551;-77
2023/08/07 12:43:11;;;;;;;2.00;0.80;;;;;;;;;;4937031;29;20035;-79
2023/08/07 12:45:37;;;;;;;255.15;127.65;;;;;;;;;;4937317;29;20031;-79
2023/08/07 12:48:02;;;;;;;11.82;6.45;;;;;;;;;;4921644;29;20062;-76
2023/08/07 12:50:29;;;;;;;0.88;0.40;;;;;;;;;;4937070;29;20034;-77
2023/08/07 12:52:54;;;;;;;1.50;0.60;;;;;;;;;;4936654;29;20028;-76
2023/08/07 12:55:20;;;;;;;2.05;0.80;;;;;;;;;;4936837;29;20035;-77
2023/08/07 12:57:46;;;;;;;3.65;0.82;;;;;;;;;;4952562;29;20027;-76
2023/08/07 13:00:14;;;;;;;3.25;0.60;;;;;;;;;;4921185;29;20059;-76
2023/08/07 13:02:44;;;;;;;3.58;1.17;;;;;;;;;;4920683;29;20031;-77
2023/08/07 13:05:10;;;;;;;2.13;0.90;;;;;;;;;;4952474;29;20037;-77
2023/08/07 13:07:36;;;;;;;4.65;1.38;;;;;;;;;;4953820;29;20114;-77
2023/08/07 13:10:02;;;;;;;1.80;0.80;;;;;;;;;;4921010;29;20553;-77
2023/08/07 13:12:27;;;;;;;3.92;0.70;;;;;;;;;;4952024;28;20114;-77
2023/08/07 13:14:53;;;;;;;3.00;0.80;;;;;;;;;;4935442;29;20038;-76
2023/08/07 13:17:19;;;;;;;1.90;0.82;;;;;;;;;;4905196;29;20035;-76
2023/08/07 13:19:44;;;;;;;1.05;0.65;;;;;;;;;;4936778;29;20459;-76
2023/08/07 13:22:10;;;;;;;3.75;0.70;;;;;;;;;;4952403;29;20082;-76
2023/08/07 13:24:35;;;;;;;2.45;0.68;;;;;;;;;;4953771;29;20106;-77
2023/08/07 13:27:02;;;;;;;1.60;0.68;;;;;;;;;;4936583;29;20038;-77
2023/08/07 13:29:29;;;;;;;1.83;0.55;;;;;;;;;;4936692;29;20116;-77
2023/08/07 13:31:55;;;;;;;1.63;0.80;;;;;;;;;;4903938;29;20039;-77
2023/08/07 13:34:21;;;;;;;8.00;1.00;;;;;;;;;;4916888;29;20474;-76
2023/08/07 13:36:47;;;;;;;3.65;1.30;;;;;;;;;;4886363;29;20047;-76
2023/08/07 13:39:13;;;;;;;9.25;2.63;;;;;;;;;;4901732;29;20031;-76
2023/08/07 13:41:39;;;;;;;4.13;1.23;;;;;;;;;;4917268;29;20522;-76
2023/08/07 13:44:05;;;;;;;5.72;2.10;;;;;;;;;;4917273;29;20032;-77
2023/08/07 13:46:31;;;;;;;10.77;2.63;;;;;;;;;;4934797;29;20464;-85
2023/08/07 13:48:57;;;;;;;6.68;2.50;;;;;;;;;;4932828;29;20479;-83
2023/08/07 13:51:23;;;;;;;4.53;2.08;;;;;;;;;;4905067;29;20036;-85
2023/08/07 13:53:51;;;;;;;6.15;1.50;;;;;;;;;;4936271;29;20506;-86
2023/08/07 13:56:16;;;;;;;7.57;2.38;;;;;;;;;;4888514;29;20031;-86
2023/08/07 13:58:42;;;;;;;3.50;1.30;;;;;;;;;;4904975;29;20482;-86
2023/08/07 14:01:08;;;;;;;4.53;1.60;;;;;;;;;;4920642;29;20036;-87
2023/08/07 14:03:34;;;;;;;4.53;1.83;;;;;;;;;;4889844;29;20491;-85
2023/08/07 14:05:59;;;;;;;6.80;1.90;;;;;;;;;;4897974;29;20399;-85
2023/08/07 14:08:25;;;;;;;7.10;2.00;;;;;;;;;;4939447;29;20035;-85
2023/08/07 14:10:51;;;;;;;9.45;3.35;;;;;;;;;;4939811;29;20077;-86
2023/08/07 14:13:16;;;;;;;11.50;4.25;;;;;;;;;;4954031;29;20403;-86
2023/08/07 14:15:42;;;;;;;10.70;3.80;;;;;;;;;;4921918;29;20035;-86
2023/08/07 14:18:08;;;;;;;9.05;3.45;;;;;;;;;;4937671;29;20110;-86
2023/08/07 14:20:34;;;;;;;8.35;3.25;;;;;;;;;;4936359;29;20546;-85
2023/08/07 14:23:00;;;;;;;7.40;2.20;;;;;;;;;;4922414;29;20063;-87
2023/08/07 14:25:25;;;;;;;14.02;2.65;;;;;;;;;;4942331;29;20023;-83
2023/08/07 14:27:54;;;;;;;11.88;2.80;;;;;;;;;;4925805;29;20650;-84
2023/08/07 14:30:20;;;;;;;8.23;2.47;;;;;;;;;;4959470;29;20035;-83
2023/08/07 14:32:51;;;;;;;7.10;1.63;;;;;;;;;;4948424;29;20094;-83
2023/08/07 14:35:17;;;;;;;6.70;1.90;;;;;;;;;;4945585;29;20035;-83
2023/08/07 14:37:43;;;;;;;6.53;1.77;;;;;;;;;;4924796;29;20456;-83
2023/08/07 14:40:09;;;;;;;10.20;2.45;;;;;;;;;;4927173;29;20039;-84